sensor_id;sensor_type;location;lat;lon;timestamp;temperature;humidity
10536;DHT22;5316;49.538;8.352;2024-01-15T00:01:33;-1.40;34.50
10536;DHT22;5316;49.538;8.352;2024-01-15T00:04:01;-1.40;69.00
10536;DHT22;5316;49.538;8.352;2024-01-15T00:06:28;-1.40;99.90
10536;DHT22;5316;49.538;8.352;2024-01-15T00:08:55;-1.30;3.00
10536;DHT22;5316;49.538;8.352;2024-01-15T00:11:23;-1.30;1.00
10536;DHT22;5316;49.538;8.352;2024-01-15T00:13:50;-1.30;19.10
10536;DHT22;5316;49.538;8.352;2024-01-15T00:16:17;-1.30;99.90
10536;DHT22;5316;49.538;8.352;2024-01-15T00:18:44;-1.30;99.90
10536;DHT22;5316;49.538;8.352;2024-01-15T00:21:12;-1.30;99.90
10536;DHT22;5316;49.538;8.352;2024-01-15T00:23:42;-1.20;99.90
10536;DHT22;5316;49.538;8.352;2024-01-15T00:26:09;-1.20;12.00
10536;DHT22;5316;49.538;8.352;2024-01-15T00:28:36;-1.30;80.70
10536;DHT22;5316;49.538;8.352;2024-01-15T00:31:03;-1.20;99.90
10536;DHT22;5316;49.538;8.352;2024-01-15T00:33:30;-1.30;99.90
10536;DHT22;5316;49.538;8.352;2024-01-15T00:35:57;-1.30;99.90
10536;DHT22;5316;49.538;8.352;2024-01-15T00:38:25;-1.30;99.90
10536;DHT22;5316;49.538;8.352;2024-01-15T00:40:52;-1.30;99.90
10536;DHT22;5316;49.538;8.352;2024-01-15T00:43:19;-1.20;4.40
10536;DHT22;5316;49.538;8.352;2024-01-15T00:45:45;-1.20;1.00
10536;DHT22;5316;49.538;8.352;2024-01-15T00:48:12;-1.20;1.00
10536;DHT22;5316;49.538;8.352;2024-01-15T00:50:39;-1.20;1.00
10536;DHT22;5316;49.538;8.352;2024-01-15T00:53:05;-1.20;1.00
10536;DHT22;5316;49.538;8.352;2024-01-15T00:55:33;-1.20;1.00
10536;DHT22;5316;49.538;8.352;2024-01-15T00:58:01;-1.20;1.00
10536;DHT22;5316;49.538;8.352;2024-01-15T01:00:28;-1.20;1.00
10536;DHT22;5316;49.538;8.352;2024-01-15T01:02:55;-1.20;1.00
10536;DHT22;5316;49.538;8.352;2024-01-15T01:05:21;-1.10;1.00
10536;DHT22;5316;49.538;8.352;2024-01-15T01:07:48;-1.10;1.00
10536;DHT22;5316;49.538;8.352;2024-01-15T01:10:15;-1.10;1.00
10536;DHT22;5316;49.538;8.352;2024-01-15T01:12:43;-1.10;1.00
10536;DHT22;5316;49.538;8.352;2024-01-15T01:15:10;-1.10;1.00
10536;DHT22;5316;49.538;8.352;2024-01-15T01:17:37;-1.10;1.00
10536;DHT22;5316;49.538;8.352;2024-01-15T01:20:04;-1.00;1.00
10536;DHT22;5316;49.538;8.352;2024-01-15T01:22:33;-1.10;1.00
10536;DHT22;5316;49.538;8.352;2024-01-15T01:25:00;-1.10;1.00
10536;DHT22;5316;49.538;8.352;2024-01-15T01:27:27;-1.00;1.00
10536;DHT22;5316;49.538;8.352;2024-01-15T01:29:55;-1.00;1.00
10536;DHT22;5316;49.538;8.352;2024-01-15T01:32:21;-1.00;1.00
10536;DHT22;5316;49.538;8.352;2024-01-15T01:34:48;-1.00;1.00
10536;DHT22;5316;49.538;8.352;2024-01-15T01:37:15;-1.00;1.00
10536;DHT22;5316;49.538;8.352;2024-01-15T01:39:43;-1.00;1.00
10536;DHT22;5316;49.538;8.352;2024-01-15T01:42:10;-1.00;1.00
10536;DHT22;5316;49.538;8.352;2024-01-15T01:44:37;-0.90;1.00
10536;DHT22;5316;49.538;8.352;2024-01-15T01:47:05;-0.90;1.00
10536;DHT22;5316;49.538;8.352;2024-01-15T01:49:33;-0.90;1.00
10536;DHT22;5316;49.538;8.352;2024-01-15T01:52:01;-0.90;1.00
10536;DHT22;5316;49.538;8.352;2024-01-15T01:54:31;-0.90;1.00
10536;DHT22;5316;49.538;8.352;2024-01-15T01:56:58;-0.90;1.00
10536;DHT22;5316;49.538;8.352;2024-01-15T01:59:27;-0.90;99.90
10536;DHT22;5316;49.538;8.352;2024-01-15T02:01:54;-0.90;99.90
10536;DHT22;5316;49.538;8.352;2024-01-15T02:04:24;-0.90;1.00
10536;DHT22;5316;49.538;8.352;2024-01-15T02:06:51;-0.80;99.90
10536;DHT22;5316;49.538;8.352;2024-01-15T02:09:18;-0.80;99.90
10536;DHT22;5316;49.538;8.352;2024-01-15T02:11:46;-0.80;99.90
10536;DHT22;5316;49.538;8.352;2024-01-15T02:14:13;-0.80;1.00
10536;DHT22;5316;49.538;8.352;2024-01-15T02:16:40;-0.80;1.00
10536;DHT22;5316;49.538;8.352;2024-01-15T02:19:07;-0.80;1.00
10536;DHT22;5316;49.538;8.352;2024-01-15T02:21:35;-0.80;1.00
10536;DHT22;5316;49.538;8.352;2024-01-15T02:24:03;-0.80;1.00
10536;DHT22;5316;49.538;8.352;2024-01-15T02:26:30;-0.80;1.00
10536;DHT22;5316;49.538;8.352;2024-01-15T02:29:01;-0.80;1.00
10536;DHT22;5316;49.538;8.352;2024-01-15T02:31:28;-0.90;1.00
10536;DHT22;5316;49.538;8.352;2024-01-15T02:33:55;-0.90;1.00
10536;DHT22;5316;49.538;8.352;2024-01-15T02:36:21;-0.80;1.00
10536;DHT22;5316;49.538;8.352;2024-01-15T02:38:48;-0.80;1.00
10536;DHT22;5316;49.538;8.352;2024-01-15T02:41:16;-0.70;1.00
10536;DHT22;5316;49.538;8.352;2024-01-15T02:43:43;-0.70;1.00
10536;DHT22;5316;49.538;8.352;2024-01-15T02:46:10;-0.70;1.00
10536;DHT22;5316;49.538;8.352;2024-01-15T02:48:36;-0.70;1.00
10536;DHT22;5316;49.538;8.352;2024-01-15T02:51:03;-0.80;1.00
10536;DHT22;5316;49.538;8.352;2024-01-15T02:53:30;-0.80;1.00
10536;DHT22;5316;49.538;8.352;2024-01-15T02:55:57;-0.80;1.00
10536;DHT22;5316;49.538;8.352;2024-01-15T02:58:25;-0.70;1.00
10536;DHT22;5316;49.538;8.352;2024-01-15T03:00:51;-0.70;12.20
10536;DHT22;5316;49.538;8.352;2024-01-15T03:03:18;-0.70;1.00
10536;DHT22;5316;49.538;8.352;2024-01-15T03:05:45;-0.70;1.00
10536;DHT22;5316;49.538;8.352;2024-01-15T03:08:12;-0.70;1.00
10536;DHT22;5316;49.538;8.352;2024-01-15T03:10:39;-0.70;1.00
10536;DHT22;5316;49.538;8.352;2024-01-15T03:13:06;-0.60;1.00
10536;DHT22;5316;49.538;8.352;2024-01-15T03:15:34;-0.60;1.00
10536;DHT22;5316;49.538;8.352;2024-01-15T03:18:00;-0.60;1.00
10536;DHT22;5316;49.538;8.352;2024-01-15T03:20:27;-0.60;1.00
10536;DHT22;5316;49.538;8.352;2024-01-15T03:22:54;-0.50;1.00
10536;DHT22;5316;49.538;8.352;2024-01-15T03:25:20;-0.50;1.00
10536;DHT22;5316;49.538;8.352;2024-01-15T03:27:47;-0.50;1.00
10536;DHT22;5316;49.538;8.352;2024-01-15T03:30:14;-0.50;1.00
10536;DHT22;5316;49.538;8.352;2024-01-15T03:32:42;-0.50;1.00
10536;DHT22;5316;49.538;8.352;2024-01-15T03:35:09;-0.40;1.00
10536;DHT22;5316;49.538;8.352;2024-01-15T03:40:09;-0.40;1.00
10536;DHT22;5316;49.538;8.352;2024-01-15T03:42:36;-0.40;1.00
10536;DHT22;5316;49.538;8.352;2024-01-15T03:45:03;-0.40;1.00
10536;DHT22;5316;49.538;8.352;2024-01-15T03:47:30;-0.40;1.00
10536;DHT22;5316;49.538;8.352;2024-01-15T03:49:58;-0.40;1.00
10536;DHT22;5316;49.538;8.352;2024-01-15T03:52:25;-0.40;99.90
10536;DHT22;5316;49.538;8.352;2024-01-15T03:54:52;-0.40;99.90
10536;DHT22;5316;49.538;8.352;2024-01-15T03:57:18;-0.40;1.00
10536;DHT22;5316;49.538;8.352;2024-01-15T03:59:45;-0.40;1.00
10536;DHT22;5316;49.538;8.352;2024-01-15T04:02:12;-0.50;1.00
10536;DHT22;5316;49.538;8.352;2024-01-15T04:04:40;-0.50;1.00
10536;DHT22;5316;49.538;8.352;2024-01-15T04:07:08;-0.50;1.00
10536;DHT22;5316;49.538;8.352;2024-01-15T04:09:35;-0.40;1.00
10536;DHT22;5316;49.538;8.352;2024-01-15T04:12:02;-0.40;1.00
10536;DHT22;5316;49.538;8.352;2024-01-15T04:14:29;-0.50;1.00
10536;DHT22;5316;49.538;8.352;2024-01-15T04:16:56;-0.40;1.00
10536;DHT22;5316;49.538;8.352;2024-01-15T04:19:22;-0.40;1.00
10536;DHT22;5316;49.538;8.352;2024-01-15T04:21:49;-0.40;1.00
10536;DHT22;5316;49.538;8.352;2024-01-15T04:24:17;-0.40;1.00
10536;DHT22;5316;49.538;8.352;2024-01-15T04:26:44;-0.50;1.00
10536;DHT22;5316;49.538;8.352;2024-01-15T04:29:11;-0.50;1.00
10536;DHT22;5316;49.538;8.352;2024-01-15T04:31:38;-0.50;99.90
10536;DHT22;5316;49.538;8.352;2024-01-15T04:34:05;-0.50;99.90
10536;DHT22;5316;49.538;8.352;2024-01-15T04:36:31;-0.50;99.90
10536;DHT22;5316;49.538;8.352;2024-01-15T04:38:58;-0.50;99.90
10536;DHT22;5316;49.538;8.352;2024-01-15T04:41:26;-0.50;99.90
10536;DHT22;5316;49.538;8.352;2024-01-15T04:43:53;-0.50;99.90
10536;DHT22;5316;49.538;8.352;2024-01-15T04:46:19;-0.50;99.90
10536;DHT22;5316;49.538;8.352;2024-01-15T04:48:46;-0.50;99.90
10536;DHT22;5316;49.538;8.352;2024-01-15T04:51:13;-0.50;99.90
10536;DHT22;5316;49.538;8.352;2024-01-15T04:53:41;-0.50;1.00
10536;DHT22;5316;49.538;8.352;2024-01-15T04:56:08;-0.50;1.00
10536;DHT22;5316;49.538;8.352;2024-01-15T04:58:36;-0.50;1.00
10536;DHT22;5316;49.538;8.352;2024-01-15T05:01:03;-0.50;1.00
10536;DHT22;5316;49.538;8.352;2024-01-15T05:03:30;-0.50;1.00
10536;DHT22;5316;49.538;8.352;2024-01-15T05:05:56;-0.50;1.00
10536;DHT22;5316;49.538;8.352;2024-01-15T05:08:23;-0.50;1.00
10536;DHT22;5316;49.538;8.352;2024-01-15T05:10:50;-0.50;1.00
10536;DHT22;5316;49.538;8.352;2024-01-15T05:13:16;-0.50;1.00
10536;DHT22;5316;49.538;8.352;2024-01-15T05:15:45;-0.50;1.00
10536;DHT22;5316;49.538;8.352;2024-01-15T05:18:11;-0.40;1.00
10536;DHT22;5316;49.538;8.352;2024-01-15T05:20:38;-0.40;1.00
10536;DHT22;5316;49.538;8.352;2024-01-15T05:23:05;-0.40;1.00
10536;DHT22;5316;49.538;8.352;2024-01-15T05:25:31;-0.40;99.90
10536;DHT22;5316;49.538;8.352;2024-01-15T05:27:58;-0.30;99.90
10536;DHT22;5316;49.538;8.352;2024-01-15T05:30:25;-0.30;99.90
10536;DHT22;5316;49.538;8.352;2024-01-15T05:32:53;-0.30;99.90
10536;DHT22;5316;49.538;8.352;2024-01-15T05:35:20;-0.30;99.90
10536;DHT22;5316;49.538;8.352;2024-01-15T05:37:46;-0.30;99.90
10536;DHT22;5316;49.538;8.352;2024-01-15T05:40:13;-0.30;99.90
10536;DHT22;5316;49.538;8.352;2024-01-15T05:42:41;-0.30;99.90
10536;DHT22;5316;49.538;8.352;2024-01-15T05:45:08;-0.40;1.00
10536;DHT22;5316;49.538;8.352;2024-01-15T05:47:35;-0.40;1.00
10536;DHT22;5316;49.538;8.352;2024-01-15T05:50:04;-0.30;1.00
10536;DHT22;5316;49.538;8.352;2024-01-15T05:52:30;-0.30;99.90
10536;DHT22;5316;49.538;8.352;2024-01-15T05:54:57;-0.30;99.90
10536;DHT22;5316;49.538;8.352;2024-01-15T05:57:24;-0.30;1.00
10536;DHT22;5316;49.538;8.352;2024-01-15T05:59:51;-0.20;99.90
10536;DHT22;5316;49.538;8.352;2024-01-15T06:02:18;-0.20;39.90
10536;DHT22;5316;49.538;8.352;2024-01-15T06:04:44;-0.20;72.70
10536;DHT22;5316;49.538;8.352;2024-01-15T06:07:13;-0.10;1.00
10536;DHT22;5316;49.538;8.352;2024-01-15T06:09:39;-0.10;1.00
10536;DHT22;5316;49.538;8.352;2024-01-15T06:12:07;-0.10;1.00
10536;DHT22;5316;49.538;8.352;2024-01-15T06:14:34;-0.10;1.00
10536;DHT22;5316;49.538;8.352;2024-01-15T06:17:00;-0.10;1.00
10536;DHT22;5316;49.538;8.352;2024-01-15T06:19:27;0.00;1.00
10536;DHT22;5316;49.538;8.352;2024-01-15T06:21:54;0.00;1.00
10536;DHT22;5316;49.538;8.352;2024-01-15T06:24:22;0.10;1.00
10536;DHT22;5316;49.538;8.352;2024-01-15T06:26:48;0.10;1.00
10536;DHT22;5316;49.538;8.352;2024-01-15T06:29:15;0.10;1.00
10536;DHT22;5316;49.538;8.352;2024-01-15T06:31:42;0.20;1.00
10536;DHT22;5316;49.538;8.352;2024-01-15T06:34:09;0.20;1.00
10536;DHT22;5316;49.538;8.352;2024-01-15T06:36:35;0.20;1.00
10536;DHT22;5316;49.538;8.352;2024-01-15T06:39:02;0.20;99.90
10536;DHT22;5316;49.538;8.352;2024-01-15T06:41:30;0.20;99.90
10536;DHT22;5316;49.538;8.352;2024-01-15T06:43:57;0.20;99.90
10536;DHT22;5316;49.538;8.352;2024-01-15T06:46:24;0.20;1.00
10536;DHT22;5316;49.538;8.352;2024-01-15T06:48:51;0.10;1.00
10536;DHT22;5316;49.538;8.352;2024-01-15T06:51:17;0.10;1.00
10536;DHT22;5316;49.538;8.352;2024-01-15T06:53:44;0.10;1.00
10536;DHT22;5316;49.538;8.352;2024-01-15T06:56:11;0.10;1.00
10536;DHT22;5316;49.538;8.352;2024-01-15T06:58:39;0.10;1.00
10536;DHT22;5316;49.538;8.352;2024-01-15T07:01:05;0.10;83.60
10536;DHT22;5316;49.538;8.352;2024-01-15T07:03:33;0.10;22.20
10536;DHT22;5316;49.538;8.352;2024-01-15T07:06:00;0.10;50.50
10536;DHT22;5316;49.538;8.352;2024-01-15T07:08:26;0.10;99.90
10536;DHT22;5316;49.538;8.352;2024-01-15T07:10:53;0.10;99.90
10536;DHT22;5316;49.538;8.352;2024-01-15T07:13:20;0.10;99.90
10536;DHT22;5316;49.538;8.352;2024-01-15T07:15:48;0.10;99.90
10536;DHT22;5316;49.538;8.352;2024-01-15T07:18:15;0.20;41.80
10536;DHT22;5316;49.538;8.352;2024-01-15T07:20:42;0.20;1.00
10536;DHT22;5316;49.538;8.352;2024-01-15T07:23:09;0.30;47.00
10536;DHT22;5316;49.538;8.352;2024-01-15T07:25:35;0.30;1.00
10536;DHT22;5316;49.538;8.352;2024-01-15T07:28:03;0.40;1.00
10536;DHT22;5316;49.538;8.352;2024-01-15T07:30:30;0.50;1.00
10536;DHT22;5316;49.538;8.352;2024-01-15T07:32:58;0.50;1.00
10536;DHT22;5316;49.538;8.352;2024-01-15T07:35:25;0.40;1.00
10536;DHT22;5316;49.538;8.352;2024-01-15T07:37:51;0.50;1.00
10536;DHT22;5316;49.538;8.352;2024-01-15T07:40:18;0.50;1.00
10536;DHT22;5316;49.538;8.352;2024-01-15T07:42:45;0.50;1.00
10536;DHT22;5316;49.538;8.352;2024-01-15T07:45:13;0.50;1.00
10536;DHT22;5316;49.538;8.352;2024-01-15T07:47:39;0.60;1.00
10536;DHT22;5316;49.538;8.352;2024-01-15T07:50:08;1.00;1.00
10536;DHT22;5316;49.538;8.352;2024-01-15T07:52:34;0.60;99.90
10536;DHT22;5316;49.538;8.352;2024-01-15T07:55:01;0.60;99.90
10536;DHT22;5316;49.538;8.352;2024-01-15T07:57:29;0.60;99.90
10536;DHT22;5316;49.538;8.352;2024-01-15T07:59:55;0.60;99.90
10536;DHT22;5316;49.538;8.352;2024-01-15T08:02:22;0.70;99.90
10536;DHT22;5316;49.538;8.352;2024-01-15T08:04:49;0.60;99.90
10536;DHT22;5316;49.538;8.352;2024-01-15T08:07:17;0.60;99.90
10536;DHT22;5316;49.538;8.352;2024-01-15T08:09:44;0.60;99.90
10536;DHT22;5316;49.538;8.352;2024-01-15T08:12:13;0.60;1.00
10536;DHT22;5316;49.538;8.352;2024-01-15T08:14:39;0.70;99.90
10536;DHT22;5316;49.538;8.352;2024-01-15T08:17:06;0.60;99.90
10536;DHT22;5316;49.538;8.352;2024-01-15T08:19:33;0.60;1.00
10536;DHT22;5316;49.538;8.352;2024-01-15T08:21:59;0.70;1.00
10536;DHT22;5316;49.538;8.352;2024-01-15T08:24:27;0.70;99.90
10536;DHT22;5316;49.538;8.352;2024-01-15T08:26:54;0.70;1.00
10536;DHT22;5316;49.538;8.352;2024-01-15T08:29:21;0.70;99.90
10536;DHT22;5316;49.538;8.352;2024-01-15T08:31:50;0.80;99.90
10536;DHT22;5316;49.538;8.352;2024-01-15T08:34:17;0.70;1.00
10536;DHT22;5316;49.538;8.352;2024-01-15T08:36:43;0.80;1.00
10536;DHT22;5316;49.538;8.352;2024-01-15T08:39:10;0.80;1.00
10536;DHT22;5316;49.538;8.352;2024-01-15T08:41:38;0.80;1.00
10536;DHT22;5316;49.538;8.352;2024-01-15T08:44:05;0.80;1.00
10536;DHT22;5316;49.538;8.352;2024-01-15T08:46:31;0.90;43.50
10536;DHT22;5316;49.538;8.352;2024-01-15T08:48:58;0.90;34.20
10536;DHT22;5316;49.538;8.352;2024-01-15T08:51:25;0.90;99.90
10536;DHT22;5316;49.538;8.352;2024-01-15T08:53:52;0.90;99.90
10536;DHT22;5316;49.538;8.352;2024-01-15T08:56:18;0.90;99.90
10536;DHT22;5316;49.538;8.352;2024-01-15T08:58:46;0.90;99.90
10536;DHT22;5316;49.538;8.352;2024-01-15T09:01:13;0.90;99.90
10536;DHT22;5316;49.538;8.352;2024-01-15T09:03:40;0.90;55.20
10536;DHT22;5316;49.538;8.352;2024-01-15T09:06:07;0.90;61.60
10536;DHT22;5316;49.538;8.352;2024-01-15T09:08:35;0.90;1.00
10536;DHT22;5316;49.538;8.352;2024-01-15T09:11:02;0.90;99.90
10536;DHT22;5316;49.538;8.352;2024-01-15T09:13:29;1.00;97.60
10536;DHT22;5316;49.538;8.352;2024-01-15T09:15:58;1.00;1.00
10536;DHT22;5316;49.538;8.352;2024-01-15T09:18:25;1.00;99.90
10536;DHT22;5316;49.538;8.352;2024-01-15T09:20:52;1.00;99.90
10536;DHT22;5316;49.538;8.352;2024-01-15T09:23:18;1.00;99.90
10536;DHT22;5316;49.538;8.352;2024-01-15T09:25:45;1.00;99.90
10536;DHT22;5316;49.538;8.352;2024-01-15T09:28:13;1.00;99.90
10536;DHT22;5316;49.538;8.352;2024-01-15T09:30:40;1.00;99.90
10536;DHT22;5316;49.538;8.352;2024-01-15T09:33:08;1.00;1.00
10536;DHT22;5316;49.538;8.352;2024-01-15T09:35:34;1.10;99.90
10536;DHT22;5316;49.538;8.352;2024-01-15T09:38:02;1.10;1.00
10536;DHT22;5316;49.538;8.352;2024-01-15T09:40:31;1.10;99.90
10536;DHT22;5316;49.538;8.352;2024-01-15T09:42:58;1.20;1.00
10536;DHT22;5316;49.538;8.352;2024-01-15T09:45:25;1.20;99.90
10536;DHT22;5316;49.538;8.352;2024-01-15T09:47:52;1.20;99.90
10536;DHT22;5316;49.538;8.352;2024-01-15T09:50:21;1.20;99.90
10536;DHT22;5316;49.538;8.352;2024-01-15T09:52:48;1.10;99.90
10536;DHT22;5316;49.538;8.352;2024-01-15T09:55:17;1.10;99.90
10536;DHT22;5316;49.538;8.352;2024-01-15T09:57:44;1.10;99.90
10536;DHT22;5316;49.538;8.352;2024-01-15T10:00:12;1.10;1.00
10536;DHT22;5316;49.538;8.352;2024-01-15T10:02:39;1.00;99.90
10536;DHT22;5316;49.538;8.352;2024-01-15T10:05:07;1.00;9.60
10536;DHT22;5316;49.538;8.352;2024-01-15T10:07:35;1.00;99.90
10536;DHT22;5316;49.538;8.352;2024-01-15T10:10:04;1.00;1.00
10536;DHT22;5316;49.538;8.352;2024-01-15T10:12:31;1.00;1.00
10536;DHT22;5316;49.538;8.352;2024-01-15T10:14:59;1.00;11.60
10536;DHT22;5316;49.538;8.352;2024-01-15T10:17:26;0.90;99.90
10536;DHT22;5316;49.538;8.352;2024-01-15T10:19:53;0.90;1.00
10536;DHT22;5316;49.538;8.352;2024-01-15T10:22:20;0.90;1.00
10536;DHT22;5316;49.538;8.352;2024-01-15T10:24:48;1.00;1.00
10536;DHT22;5316;49.538;8.352;2024-01-15T10:27:15;1.00;99.90
10536;DHT22;5316;49.538;8.352;2024-01-15T10:29:42;1.00;99.90
10536;DHT22;5316;49.538;8.352;2024-01-15T10:32:09;1.10;1.00
10536;DHT22;5316;49.538;8.352;2024-01-15T10:34:38;1.10;99.90
10536;DHT22;5316;49.538;8.352;2024-01-15T10:37:07;1.10;1.00
10536;DHT22;5316;49.538;8.352;2024-01-15T10:39:35;1.10;99.90
10536;DHT22;5316;49.538;8.352;2024-01-15T10:42:04;1.10;99.90
10536;DHT22;5316;49.538;8.352;2024-01-15T10:44:31;1.10;7.00
10536;DHT22;5316;49.538;8.352;2024-01-15T10:46:58;1.20;29.50
10536;DHT22;5316;49.538;8.352;2024-01-15T10:49:26;1.20;99.90
10536;DHT22;5316;49.538;8.352;2024-01-15T10:51:54;1.20;99.90
10536;DHT22;5316;49.538;8.352;2024-01-15T10:54:23;1.20;99.90
10536;DHT22;5316;49.538;8.352;2024-01-15T10:56:50;1.20;99.90
10536;DHT22;5316;49.538;8.352;2024-01-15T10:59:20;1.30;1.00
10536;DHT22;5316;49.538;8.352;2024-01-15T11:01:47;1.20;1.00
10536;DHT22;5316;49.538;8.352;2024-01-15T11:04:14;1.30;1.00
10536;DHT22;5316;49.538;8.352;2024-01-15T11:06:44;1.30;51.50
10536;DHT22;5316;49.538;8.352;2024-01-15T11:09:11;1.30;72.30
10536;DHT22;5316;49.538;8.352;2024-01-15T11:11:41;1.30;1.00
10536;DHT22;5316;49.538;8.352;2024-01-15T11:14:08;1.30;1.00
10536;DHT22;5316;49.538;8.352;2024-01-15T11:16:54;1.30;17.50
10536;DHT22;5316;49.538;8.352;2024-01-15T11:19:21;1.30;99.90
10536;DHT22;5316;49.538;8.352;2024-01-15T11:21:48;1.30;1.00
10536;DHT22;5316;49.538;8.352;2024-01-15T11:24:33;1.30;99.90
10536;DHT22;5316;49.538;8.352;2024-01-15T11:27:00;1.30;84.40
10536;DHT22;5316;49.538;8.352;2024-01-15T11:29:31;1.30;1.00
10536;DHT22;5316;49.538;8.352;2024-01-15T11:32:02;1.30;99.90
10536;DHT22;5316;49.538;8.352;2024-01-15T11:34:58;1.40;1.00
10536;DHT22;5316;49.538;8.352;2024-01-15T11:37:28;1.40;1.00
10536;DHT22;5316;49.538;8.352;2024-01-15T11:39:56;1.50;99.90
10536;DHT22;5316;49.538;8.352;2024-01-15T11:42:27;1.50;35.10
10536;DHT22;5316;49.538;8.352;2024-01-15T11:44:53;1.50;99.90
10536;DHT22;5316;49.538;8.352;2024-01-15T11:50:40;1.60;15.00
10536;DHT22;5316;49.538;8.352;2024-01-15T11:53:16;1.60;19.20
10536;DHT22;5316;49.538;8.352;2024-01-15T11:55:44;1.60;1.00
10536;DHT22;5316;49.538;8.352;2024-01-15T11:58:12;1.60;1.00
10536;DHT22;5316;49.538;8.352;2024-01-15T12:00:39;1.60;99.90
10536;DHT22;5316;49.538;8.352;2024-01-15T12:03:08;1.70;1.00
10536;DHT22;5316;49.538;8.352;2024-01-15T12:05:37;1.60;99.90
10536;DHT22;5316;49.538;8.352;2024-01-15T12:08:04;1.60;99.90
10536;DHT22;5316;49.538;8.352;2024-01-15T12:10:36;1.70;19.60
10536;DHT22;5316;49.538;8.352;2024-01-15T12:13:05;1.70;52.30
10536;DHT22;5316;49.538;8.352;2024-01-15T12:15:32;1.80;1.00
10536;DHT22;5316;49.538;8.352;2024-01-15T12:18:01;1.80;1.00
10536;DHT22;5316;49.538;8.352;2024-01-15T12:20:30;1.80;1.00
10536;DHT22;5316;49.538;8.352;2024-01-15T12:22:59;1.90;1.00
10536;DHT22;5316;49.538;8.352;2024-01-15T12:25:26;1.90;1.00
10536;DHT22;5316;49.538;8.352;2024-01-15T12:27:53;1.90;1.00
10536;DHT22;5316;49.538;8.352;2024-01-15T12:30:20;1.90;1.00
10536;DHT22;5316;49.538;8.352;2024-01-15T12:32:47;1.90;1.00
10536;DHT22;5316;49.538;8.352;2024-01-15T12:35:14;2.00;1.00
10536;DHT22;5316;49.538;8.352;2024-01-15T12:37:43;2.00;99.90
10536;DHT22;5316;49.538;8.352;2024-01-15T12:40:12;2.00;99.90
10536;DHT22;5316;49.538;8.352;2024-01-15T12:42:40;2.00;1.00
10536;DHT22;5316;49.538;8.352;2024-01-15T12:45:08;2.10;99.90
10536;DHT22;5316;49.538;8.352;2024-01-15T12:47:36;2.10;99.90
10536;DHT22;5316;49.538;8.352;2024-01-15T12:50:06;2.10;99.90
10536;DHT22;5316;49.538;8.352;2024-01-15T12:52:33;2.10;99.90
10536;DHT22;5316;49.538;8.352;2024-01-15T12:55:01;2.10;99.90
10536;DHT22;5316;49.538;8.352;2024-01-15T12:57:28;2.20;99.90
10536;DHT22;5316;49.538;8.352;2024-01-15T12:59:55;2.20;99.90
10536;DHT22;5316;49.538;8.352;2024-01-15T13:02:22;2.30;99.90
10536;DHT22;5316;49.538;8.352;2024-01-15T13:04:49;2.30;1.00
10536;DHT22;5316;49.538;8.352;2024-01-15T13:07:15;2.30;1.00
10536;DHT22;5316;49.538;8.352;2024-01-15T13:09:42;2.30;1.00
10536;DHT22;5316;49.538;8.352;2024-01-15T13:12:10;2.30;1.00
10536;DHT22;5316;49.538;8.352;2024-01-15T13:14:37;2.40;1.00
10536;DHT22;5316;49.538;8.352;2024-01-15T13:17:04;2.50;1.00
10536;DHT22;5316;49.538;8.352;2024-01-15T13:19:31;2.60;1.00
10536;DHT22;5316;49.538;8.352;2024-01-15T13:21:59;2.70;99.90
10536;DHT22;5316;49.538;8.352;2024-01-15T13:24:26;2.70;99.90
10536;DHT22;5316;49.538;8.352;2024-01-15T13:26:54;2.70;99.90
10536;DHT22;5316;49.538;8.352;2024-01-15T13:29:23;2.70;99.90
10536;DHT22;5316;49.538;8.352;2024-01-15T13:31:50;2.70;99.90
10536;DHT22;5316;49.538;8.352;2024-01-15T13:34:17;2.70;99.90
10536;DHT22;5316;49.538;8.352;2024-01-15T13:36:44;2.70;99.90
10536;DHT22;5316;49.538;8.352;2024-01-15T13:39:10;2.70;99.90
10536;DHT22;5316;49.538;8.352;2024-01-15T13:41:37;2.70;99.90
10536;DHT22;5316;49.538;8.352;2024-01-15T13:44:04;2.70;99.90
10536;DHT22;5316;49.538;8.352;2024-01-15T13:46:33;2.60;99.90
10536;DHT22;5316;49.538;8.352;2024-01-15T13:49:01;2.60;99.90
10536;DHT22;5316;49.538;8.352;2024-01-15T13:51:27;2.60;1.00
10536;DHT22;5316;49.538;8.352;2024-01-15T13:53:55;2.60;99.90
10536;DHT22;5316;49.538;8.352;2024-01-15T13:56:22;2.60;1.00
10536;DHT22;5316;49.538;8.352;2024-01-15T13:58:48;2.60;1.00
10536;DHT22;5316;49.538;8.352;2024-01-15T14:01:17;2.50;1.00
10536;DHT22;5316;49.538;8.352;2024-01-15T14:03:45;2.50;1.00
10536;DHT22;5316;49.538;8.352;2024-01-15T14:06:12;2.50;1.00
10536;DHT22;5316;49.538;8.352;2024-01-15T14:08:39;2.50;1.00
10536;DHT22;5316;49.538;8.352;2024-01-15T14:11:06;2.50;99.90
10536;DHT22;5316;49.538;8.352;2024-01-15T14:13:32;2.60;1.00
10536;DHT22;5316;49.538;8.352;2024-01-15T14:15:59;2.80;99.90
10536;DHT22;5316;49.538;8.352;2024-01-15T14:18:26;2.90;99.90
10536;DHT22;5316;49.538;8.352;2024-01-15T14:20:55;2.80;99.90
10536;DHT22;5316;49.538;8.352;2024-01-15T14:23:22;2.80;99.90
10536;DHT22;5316;49.538;8.352;2024-01-15T14:25:49;2.90;99.90
10536;DHT22;5316;49.538;8.352;2024-01-15T14:28:16;2.90;90.90
10536;DHT22;5316;49.538;8.352;2024-01-15T14:30:43;2.90;96.90
10536;DHT22;5316;49.538;8.352;2024-01-15T14:33:10;2.90;83.60
10536;DHT22;5316;49.538;8.352;2024-01-15T14:35:36;3.00;91.20
10536;DHT22;5316;49.538;8.352;2024-01-15T14:38:05;3.10;40.90
10536;DHT22;5316;49.538;8.352;2024-01-15T14:40:34;3.20;1.00
10536;DHT22;5316;49.538;8.352;2024-01-15T14:43:02;3.40;1.00
10536;DHT22;5316;49.538;8.352;2024-01-15T14:45:29;3.50;1.00
10536;DHT22;5316;49.538;8.352;2024-01-15T14:47:56;3.50;1.00
10536;DHT22;5316;49.538;8.352;2024-01-15T14:50:24;3.50;1.00
10536;DHT22;5316;49.538;8.352;2024-01-15T14:52:50;3.50;1.00
10536;DHT22;5316;49.538;8.352;2024-01-15T14:55:20;3.50;1.00
10536;DHT22;5316;49.538;8.352;2024-01-15T14:57:48;3.40;1.00
10536;DHT22;5316;49.538;8.352;2024-01-15T15:00:16;3.40;1.00
10536;DHT22;5316;49.538;8.352;2024-01-15T15:02:43;3.30;1.00
10536;DHT22;5316;49.538;8.352;2024-01-15T15:05:10;3.20;1.00
10536;DHT22;5316;49.538;8.352;2024-01-15T15:07:38;3.10;1.00
10536;DHT22;5316;49.538;8.352;2024-01-15T15:10:06;3.00;1.00
10536;DHT22;5316;49.538;8.352;2024-01-15T15:12:34;3.00;1.00
10536;DHT22;5316;49.538;8.352;2024-01-15T15:15:01;2.90;1.00
10536;DHT22;5316;49.538;8.352;2024-01-15T15:17:28;2.90;1.00
10536;DHT22;5316;49.538;8.352;2024-01-15T15:19:54;2.80;1.00
10536;DHT22;5316;49.538;8.352;2024-01-15T15:22:21;2.80;1.00
10536;DHT22;5316;49.538;8.352;2024-01-15T15:24:48;2.80;1.00
10536;DHT22;5316;49.538;8.352;2024-01-15T15:27:15;2.70;1.00
10536;DHT22;5316;49.538;8.352;2024-01-15T15:29:43;2.60;1.00
10536;DHT22;5316;49.538;8.352;2024-01-15T15:32:09;2.60;1.00
10536;DHT22;5316;49.538;8.352;2024-01-15T15:34:38;2.50;1.00
10536;DHT22;5316;49.538;8.352;2024-01-15T15:37:05;2.40;1.00
10536;DHT22;5316;49.538;8.352;2024-01-15T15:39:32;2.40;1.00
10536;DHT22;5316;49.538;8.352;2024-01-15T15:41:59;2.30;1.00
10536;DHT22;5316;49.538;8.352;2024-01-15T15:44:25;2.30;7.20
10536;DHT22;5316;49.538;8.352;2024-01-15T15:53:16;1.80;99.90
10536;DHT22;5316;49.538;8.352;2024-01-15T15:55:43;2.20;99.90
10536;DHT22;5316;49.538;8.352;2024-01-15T15:58:09;2.10;93.80
10536;DHT22;5316;49.538;8.352;2024-01-15T16:00:36;2.10;99.90
10536;DHT22;5316;49.538;8.352;2024-01-15T16:03:04;2.10;99.90
10536;DHT22;5316;49.538;8.352;2024-01-15T16:05:31;2.10;99.90
10536;DHT22;5316;49.538;8.352;2024-01-15T16:07:58;2.00;70.40
10536;DHT22;5316;49.538;8.352;2024-01-15T16:10:26;2.00;99.90
10536;DHT22;5316;49.538;8.352;2024-01-15T16:12:52;2.00;99.90
10536;DHT22;5316;49.538;8.352;2024-01-15T16:15:20;1.90;74.10
10536;DHT22;5316;49.538;8.352;2024-01-15T16:17:48;1.90;94.30